Terminal Aerodrome Forecast
Issued by NWS

Home | Current Version | Previous Version | Text Only | Print | Product List | Glossary On
Versions: 1 2 3 4 5 6 7 8 9 10 11 12 13 14 15
000
FTUS45 KLKN 282324
TAFTPH
TAF
KTPH 282324Z 2900/2924 36024G34KT P6SM VCSH SCT050 BKN090
     FM290300 36016G26KT P6SM SCT050 BKN080
     FM290500 34014G24KT P6SM SCT080
     FM290800 36011KT P6SM SCT080
     FM291700 32014G26KT P6SM SCT060 BKN100=

USA.gov is the U.S. government's official web portal to all federal, state and local government web resources and services.